createdAt,value
2022-08-22T00:00:44.233Z,99.90
2022-08-22T00:03:19.085Z,99.90
2022-08-22T00:06:10.647Z,99.90
2022-08-22T00:08:38.667Z,99.90
2022-08-22T00:11:14.825Z,99.90
2022-08-22T00:14:10.298Z,99.90
2022-08-22T00:16:55.876Z,99.90
2022-08-22T00:19:38.224Z,99.90
2022-08-22T00:22:09.237Z,99.90
2022-08-22T00:24:49.132Z,99.90
2022-08-22T00:27:20.090Z,99.90
2022-08-22T00:29:57.167Z,99.90
2022-08-22T00:32:27.944Z,99.90
2022-08-22T00:35:01.086Z,99.90
2022-08-22T00:37:41.580Z,99.90
2022-08-22T00:40:22.624Z,99.90
2022-08-22T00:43:32.362Z,99.90
2022-08-22T00:46:04.994Z,99.90
2022-08-22T00:48:57.743Z,99.90
2022-08-22T00:51:47.340Z,99.90
2022-08-22T00:54:43.459Z,99.90
2022-08-22T00:57:31.827Z,99.90
2022-08-22T01:00:07.451Z,99.90
2022-08-22T01:02:58.111Z,99.90
2022-08-22T01:05:38.907Z,99.90
2022-08-22T01:09:05.792Z,99.90
2022-08-22T01:12:11.986Z,99.90
2022-08-22T01:14:43.384Z,99.90
2022-08-22T01:17:57.113Z,99.90
2022-08-22T01:20:41.776Z,99.90
2022-08-22T01:23:20.707Z,99.90
2022-08-22T01:26:09.893Z,99.90
2022-08-22T01:28:44.622Z,99.90
2022-08-22T01:31:37.868Z,99.90
2022-08-22T01:34:23.885Z,99.90
2022-08-22T01:37:15.680Z,99.90
2022-08-22T01:40:17.273Z,99.90
2022-08-22T01:42:55.591Z,99.90
2022-08-22T01:45:53.687Z,99.90
2022-08-22T01:48:24.473Z,99.90
2022-08-22T01:50:58.135Z,99.90
2022-08-22T01:53:48.784Z,99.90
2022-08-22T01:56:17.668Z,99.90
2022-08-22T01:59:05.842Z,99.90
2022-08-22T02:01:44.736Z,99.90
2022-08-22T02:04:21.065Z,99.90
2022-08-22T02:07:01.117Z,99.90
2022-08-22T02:09:34.008Z,99.90
2022-08-22T02:12:42.156Z,99.90
2022-08-22T02:15:17.960Z,99.90
2022-08-22T02:17:50.999Z,99.90
2022-08-22T02:20:24.252Z,99.90
2022-08-22T02:23:25.187Z,99.90
2022-08-22T02:25:57.026Z,99.90
2022-08-22T02:28:30.078Z,99.90
2022-08-22T02:31:09.485Z,99.90
2022-08-22T02:33:58.430Z,99.90
2022-08-22T02:36:43.449Z,99.90
2022-08-22T02:39:10.301Z,99.90
2022-08-22T02:42:20.316Z,99.90
2022-08-22T02:45:12.704Z,99.90
2022-08-22T02:48:18.229Z,99.90
2022-08-22T02:51:11.193Z,99.90
2022-08-22T02:53:55.582Z,99.90
2022-08-22T02:56:28.449Z,99.90
2022-08-22T02:58:59.888Z,99.90
2022-08-22T03:01:30.335Z,99.90
2022-08-22T03:04:27.001Z,99.90
2022-08-22T03:07:07.118Z,99.90
2022-08-22T03:09:37.437Z,99.90
2022-08-22T03:12:28.648Z,99.90
2022-08-22T03:15:04.463Z,99.90
2022-08-22T03:17:57.326Z,99.90
2022-08-22T03:21:00.209Z,99.90
2022-08-22T03:23:54.819Z,99.90
2022-08-22T03:26:52.863Z,99.90
2022-08-22T03:29:25.881Z,99.90
2022-08-22T03:32:10.656Z,99.90
2022-08-22T03:34:38.533Z,99.90
2022-08-22T03:37:20.101Z,99.90
2022-08-22T03:40:00.600Z,99.90
2022-08-22T03:42:52.024Z,99.90
2022-08-22T03:45:51.227Z,99.90
2022-08-22T03:48:46.262Z,99.90
2022-08-22T03:51:17.059Z,99.90
2022-08-22T03:54:01.501Z,99.90
2022-08-22T03:57:01.071Z,99.90
2022-08-22T03:59:46.611Z,99.90
2022-08-22T04:02:24.761Z,99.90
2022-08-22T04:05:23.852Z,99.90
2022-08-22T04:08:11.261Z,99.90
2022-08-22T04:10:58.171Z,99.90
2022-08-22T04:13:47.774Z,99.90
2022-08-22T04:16:33.486Z,99.90
2022-08-22T04:19:00.636Z,99.90
2022-08-22T04:21:49.386Z,99.90
2022-08-22T04:24:23.859Z,99.90
2022-08-22T04:27:09.619Z,99.90
2022-08-22T04:29:47.649Z,99.90
2022-08-22T04:32:21.409Z,99.90
2022-08-22T04:34:51.144Z,99.90
2022-08-22T04:37:29.089Z,99.90
2022-08-22T04:40:00.017Z,99.90
2022-08-22T04:42:32.840Z,99.90
2022-08-22T04:45:04.794Z,99.90
2022-08-22T04:47:47.200Z,99.90
2022-08-22T04:50:24.187Z,99.90
2022-08-22T04:53:29.111Z,99.90
2022-08-22T04:56:07.452Z,99.90
2022-08-22T04:58:49.616Z,99.90
2022-08-22T05:01:28.596Z,99.90
2022-08-22T05:03:58.722Z,99.90
2022-08-22T05:06:28.798Z,99.90
2022-08-22T05:08:56.625Z,99.90
2022-08-22T05:11:23.545Z,99.90
2022-08-22T05:14:00.106Z,99.90
2022-08-22T05:16:31.363Z,99.90
2022-08-22T05:19:05.220Z,99.90
2022-08-22T05:21:34.537Z,99.90
2022-08-22T05:24:09.804Z,99.90
2022-08-22T05:26:45.044Z,99.90
2022-08-22T05:29:12.574Z,99.90
2022-08-22T05:32:02.505Z,99.90
2022-08-22T05:34:32.379Z,99.90
2022-08-22T05:37:14.634Z,99.90
2022-08-22T05:39:47.811Z,99.90
2022-08-22T05:42:28.670Z,99.90
2022-08-22T05:44:55.846Z,99.90
2022-08-22T05:47:33.223Z,99.90
2022-08-22T05:50:08.530Z,99.90
2022-08-22T05:53:20.131Z,99.90
2022-08-22T05:56:07.732Z,99.90
2022-08-22T05:58:43.314Z,99.90
2022-08-22T06:01:32.048Z,99.90
2022-08-22T06:04:25.947Z,99.90
2022-08-22T06:07:03.918Z,99.90
2022-08-22T06:09:45.780Z,99.90
2022-08-22T06:12:28.119Z,99.90
2022-08-22T06:15:34.451Z,99.90
2022-08-22T06:18:06.126Z,99.90
2022-08-22T06:20:50.172Z,99.90
2022-08-22T06:23:28.666Z,99.90
2022-08-22T06:25:58.354Z,99.90
2022-08-22T06:28:28.535Z,99.90
2022-08-22T06:30:55.857Z,99.90
2022-08-22T06:33:26.407Z,99.90
2022-08-22T06:36:30.646Z,99.90
2022-08-22T06:39:30.244Z,99.90
2022-08-22T06:42:01.518Z,99.90
2022-08-22T06:44:41.556Z,99.90
2022-08-22T06:47:10.309Z,99.90
2022-08-22T06:49:37.845Z,99.90
2022-08-22T06:52:23.439Z,99.90
2022-08-22T06:54:57.629Z,99.90
2022-08-22T06:57:36.267Z,99.90
2022-08-22T07:00:09.834Z,99.90
2022-08-22T07:02:40.101Z,99.90
2022-08-22T07:05:14.531Z,99.90
2022-08-22T07:07:41.620Z,99.90
2022-08-22T07:10:11.375Z,99.90
2022-08-22T07:12:39.222Z,99.90
2022-08-22T07:15:22.496Z,99.90
2022-08-22T07:17:51.951Z,99.90
2022-08-22T07:20:29.277Z,99.90
2022-08-22T07:23:10.301Z,99.90
2022-08-22T07:25:48.562Z,99.90
2022-08-22T07:28:36.710Z,99.90
2022-08-22T07:31:39.783Z,99.90
2022-08-22T07:34:07.521Z,99.90
2022-08-22T07:36:38.693Z,99.90
2022-08-22T07:39:44.293Z,99.90
2022-08-22T07:42:33.582Z,99.90
2022-08-22T07:45:06.133Z,99.90
2022-08-22T07:47:49.775Z,99.90
2022-08-22T07:50:20.995Z,99.90
2022-08-22T07:52:48.044Z,99.90
2022-08-22T07:55:20.518Z,99.90
2022-08-22T07:57:50.852Z,99.90
2022-08-22T08:00:19.921Z,99.90
2022-08-22T08:02:54.704Z,99.90
2022-08-22T08:05:27.491Z,99.90
2022-08-22T08:08:07.535Z,99.90
2022-08-22T08:10:37.428Z,99.90
2022-08-22T08:13:19.576Z,99.90
2022-08-22T08:15:46.533Z,99.90
2022-08-22T08:18:20.825Z,99.90
2022-08-22T08:20:56.714Z,99.90
2022-08-22T08:23:26.584Z,99.90
2022-08-22T08:25:58.061Z,99.90
2022-08-22T08:28:34.201Z,99.90
2022-08-22T08:31:10.409Z,99.90
2022-08-22T08:33:39.360Z,99.90
2022-08-22T08:36:10.010Z,99.90
2022-08-22T08:38:58.126Z,99.90
2022-08-22T08:41:48.230Z,99.90
2022-08-22T08:44:51.911Z,99.90
2022-08-22T08:47:39.822Z,99.90
2022-08-22T08:50:15.734Z,99.90
2022-08-22T08:52:52.183Z,99.90
2022-08-22T08:55:41.520Z,99.90
2022-08-22T08:58:50.877Z,99.90
2022-08-22T09:01:43.013Z,99.90
2022-08-22T09:04:15.918Z,99.90
2022-08-22T09:07:20.134Z,99.90
2022-08-22T09:09:59.188Z,99.90
2022-08-22T09:13:11.269Z,99.90
2022-08-22T09:16:04.775Z,99.90
2022-08-22T09:18:40.946Z,99.90
2022-08-22T09:21:30.764Z,99.90
2022-08-22T09:24:23.293Z,99.90
2022-08-22T09:26:57.120Z,99.90
2022-08-22T09:29:55.147Z,99.90
2022-08-22T09:32:48.605Z,99.90
2022-08-22T09:35:34.374Z,99.90
2022-08-22T09:38:12.185Z,99.90
2022-08-22T09:40:46.441Z,99.90
2022-08-22T09:43:44.166Z,99.90
2022-08-22T09:46:19.097Z,99.90
2022-08-22T09:49:02.568Z,99.90
2022-08-22T09:51:41.995Z,99.90
2022-08-22T09:54:38.580Z,99.90
2022-08-22T09:57:18.685Z,99.90
2022-08-22T10:00:16.403Z,99.90
2022-08-22T10:02:50.660Z,99.90
2022-08-22T10:05:46.462Z,99.90
2022-08-22T10:08:26.182Z,99.90
2022-08-22T10:11:18.909Z,99.90
2022-08-22T10:14:07.781Z,99.90
2022-08-22T10:16:57.647Z,99.90
2022-08-22T10:19:38.201Z,99.90
2022-08-22T10:22:36.192Z,99.90
2022-08-22T10:25:25.004Z,99.90
2022-08-22T10:27:56.948Z,99.90
2022-08-22T10:30:42.860Z,99.90
2022-08-22T10:33:32.066Z,99.90
2022-08-22T10:36:07.795Z,99.90
2022-08-22T10:38:46.303Z,99.90
2022-08-22T10:41:26.110Z,99.90
2022-08-22T10:44:11.966Z,99.90
2022-08-22T10:46:50.562Z,99.90
2022-08-22T10:49:22.401Z,99.90
2022-08-22T10:52:06.501Z,99.90
2022-08-22T10:55:00.642Z,99.90
2022-08-22T10:57:52.861Z,99.90
2022-08-22T11:00:46.575Z,99.90
2022-08-22T11:03:24.750Z,99.90
2022-08-22T11:05:58.710Z,99.90
2022-08-22T11:08:44.367Z,99.90
2022-08-22T11:11:13.975Z,99.90
2022-08-22T11:13:50.294Z,99.90
2022-08-22T11:16:20.118Z,99.90
2022-08-22T11:19:16.119Z,99.90
2022-08-22T11:22:04.005Z,99.90
2022-08-22T11:24:35.689Z,99.90
2022-08-22T11:27:14.838Z,99.90
2022-08-22T11:30:18.693Z,99.90
2022-08-22T11:32:58.211Z,99.90
2022-08-22T11:35:35.541Z,99.90
2022-08-22T11:38:11.189Z,99.90
2022-08-22T11:40:47.392Z,99.90
2022-08-22T11:43:40.453Z,99.40
2022-08-22T11:46:32.399Z,98.70
2022-08-22T11:49:09.244Z,98.30
2022-08-22T11:52:00.345Z,97.40
2022-08-22T11:54:39.879Z,97.10
2022-08-22T11:57:16.614Z,95.70
2022-08-22T12:00:01.749Z,94.80
2022-08-22T12:02:38.505Z,93.20
2022-08-22T12:05:26.213Z,93.50
2022-08-22T12:08:26.600Z,92.60
2022-08-22T12:11:00.530Z,92.50
2022-08-22T12:14:02.310Z,92.00
2022-08-22T12:16:39.484Z,91.60
2022-08-22T12:19:26.557Z,91.40
2022-08-22T12:22:05.618Z,91.00
2022-08-22T12:24:41.355Z,90.90
2022-08-22T12:27:29.221Z,90.70
2022-08-22T12:30:14.197Z,90.20
2022-08-22T12:32:53.144Z,90.00
2022-08-22T12:35:50.412Z,89.50
2022-08-22T12:38:39.436Z,88.80
2022-08-22T12:41:11.100Z,89.10
2022-08-22T12:43:50.962Z,86.60
2022-08-22T12:46:46.512Z,84.60
2022-08-22T12:49:56.555Z,85.90
2022-08-22T12:52:30.995Z,90.50
2022-08-22T12:55:03.078Z,90.30
2022-08-22T12:57:54.838Z,88.40
2022-08-22T13:00:36.765Z,81.10
2022-08-22T13:03:09.626Z,80.20
2022-08-22T13:05:40.914Z,83.10
2022-08-22T13:08:11.863Z,85.40
2022-08-22T13:10:41.731Z,86.20
2022-08-22T13:13:12.465Z,85.40
2022-08-22T13:16:02.175Z,85.80
2022-08-22T13:18:38.001Z,86.40
2022-08-22T13:21:07.935Z,86.90
2022-08-22T13:23:44.127Z,86.70
2022-08-22T13:26:16.470Z,86.40
2022-08-22T13:29:23.974Z,85.80
2022-08-22T13:31:55.192Z,84.80
2022-08-22T13:34:28.932Z,84.40
2022-08-22T13:36:58.474Z,83.80
2022-08-22T13:39:32.036Z,83.60
2022-08-22T13:42:00.030Z,84.10
2022-08-22T13:44:29.513Z,84.80
2022-08-22T13:47:14.705Z,85.00
2022-08-22T13:49:53.933Z,85.10
2022-08-22T13:52:33.376Z,85.60
2022-08-22T13:55:30.343Z,85.50
2022-08-22T13:58:22.129Z,85.10
2022-08-22T14:01:01.945Z,85.70
2022-08-22T14:03:35.685Z,86.50
2022-08-22T14:06:35.523Z,85.00
2022-08-22T14:09:35.668Z,84.80
2022-08-22T14:12:12.125Z,85.00
2022-08-22T14:14:42.416Z,84.90
2022-08-22T14:17:15.430Z,84.60
2022-08-22T14:19:59.055Z,84.70
2022-08-22T14:22:34.778Z,84.80
2022-08-22T14:25:17.468Z,84.40
2022-08-22T14:27:57.741Z,84.50
2022-08-22T14:30:46.489Z,84.40
2022-08-22T14:33:23.961Z,84.50
2022-08-22T14:36:02.057Z,85.00
2022-08-22T14:38:32.073Z,85.80
2022-08-22T14:41:08.984Z,85.90
2022-08-22T14:43:46.372Z,86.60
2022-08-22T14:46:21.594Z,87.40
2022-08-22T14:48:59.498Z,87.80
2022-08-22T14:51:26.460Z,88.50
2022-08-22T14:53:53.550Z,88.60
2022-08-22T14:56:27.711Z,88.80
2022-08-22T14:59:09.784Z,88.60
2022-08-22T15:01:53.886Z,88.00
2022-08-22T15:04:43.992Z,88.30
2022-08-22T15:07:12.320Z,88.50
2022-08-22T15:09:49.282Z,89.00
2022-08-22T15:12:25.546Z,89.50
2022-08-22T15:14:55.460Z,90.00
2022-08-22T15:17:50.783Z,90.40
2022-08-22T15:20:34.129Z,90.50
2022-08-22T15:23:09.713Z,90.80
2022-08-22T15:25:41.649Z,91.00
2022-08-22T15:28:20.162Z,91.20
2022-08-22T15:31:07.897Z,91.30
2022-08-22T15:33:39.871Z,91.30
2022-08-22T15:36:21.547Z,91.40
2022-08-22T15:38:57.282Z,91.60
2022-08-22T15:41:37.873Z,91.70
2022-08-22T15:44:32.536Z,92.00
2022-08-22T15:47:24.261Z,92.20
2022-08-22T15:50:00.372Z,92.40
2022-08-22T15:52:30.648Z,92.50
2022-08-22T15:55:23.247Z,92.70
2022-08-22T15:58:12.842Z,92.80
2022-08-22T16:00:45.496Z,92.80
2022-08-22T16:03:24.376Z,93.00
2022-08-22T16:06:05.063Z,93.20
2022-08-22T16:08:50.975Z,93.40
2022-08-22T16:11:33.620Z,93.70
2022-08-22T16:14:32.931Z,93.90
2022-08-22T16:17:01.416Z,94.10
2022-08-22T16:19:30.142Z,94.30
2022-08-22T16:21:59.305Z,94.40
2022-08-22T16:24:26.407Z,94.50
2022-08-22T16:26:53.584Z,94.60
2022-08-22T16:29:41.296Z,94.70
2022-08-22T16:32:10.144Z,94.90
2022-08-22T16:34:37.149Z,95.00
2022-08-22T16:37:03.971Z,95.20
2022-08-22T16:39:38.652Z,95.40
2022-08-22T16:42:22.425Z,95.50
2022-08-22T16:45:02.627Z,95.60
2022-08-22T16:47:40.703Z,95.70
2022-08-22T16:50:19.675Z,95.90
2022-08-22T16:53:04.305Z,96.00
2022-08-22T16:55:31.334Z,96.10
2022-08-22T16:58:55.773Z,96.30
2022-08-22T17:01:54.665Z,96.30
2022-08-22T17:04:43.682Z,96.40
2022-08-22T17:07:14.304Z,96.50
2022-08-22T17:10:12.698Z,96.60
2022-08-22T17:13:09.529Z,96.70
2022-08-22T17:15:50.343Z,96.80
2022-08-22T17:18:25.666Z,96.80
2022-08-22T17:21:04.438Z,96.90
2022-08-22T17:24:06.043Z,97.00
2022-08-22T17:26:50.408Z,97.10
2022-08-22T17:29:37.283Z,97.10
2022-08-22T17:32:07.366Z,97.30
2022-08-22T17:34:38.974Z,97.30
2022-08-22T17:37:33.876Z,97.40
2022-08-22T17:40:24.919Z,97.40
2022-08-22T17:42:54.667Z,97.40
2022-08-22T17:45:57.863Z,97.50
2022-08-22T17:48:29.035Z,97.60
2022-08-22T17:51:03.983Z,97.70
2022-08-22T17:53:36.187Z,98.10
2022-08-22T17:56:09.228Z,98.50
2022-08-22T17:58:59.226Z,99.10
2022-08-22T18:01:43.854Z,99.80
2022-08-22T18:04:17.080Z,99.90
2022-08-22T18:06:56.288Z,99.90
2022-08-22T18:09:39.299Z,99.90
2022-08-22T18:12:15.899Z,99.90
2022-08-22T18:14:56.060Z,99.90
2022-08-22T18:17:38.467Z,99.90
2022-08-22T18:20:15.918Z,99.90
2022-08-22T18:22:51.335Z,99.90
2022-08-22T18:25:18.109Z,99.90
2022-08-22T18:28:06.953Z,99.90
2022-08-22T18:30:49.967Z,99.90
2022-08-22T18:33:29.045Z,99.90
2022-08-22T18:36:24.769Z,99.90
2022-08-22T18:39:10.780Z,99.90
2022-08-22T18:41:43.960Z,99.90
2022-08-22T18:44:12.579Z,99.90
2022-08-22T18:46:45.510Z,99.90
2022-08-22T18:49:24.576Z,99.90
2022-08-22T18:52:09.631Z,99.90
2022-08-22T18:54:55.344Z,99.90
2022-08-22T18:57:47.220Z,99.90
2022-08-22T19:00:18.834Z,99.90
2022-08-22T19:03:20.838Z,99.90
2022-08-22T19:06:09.154Z,99.90
2022-08-22T19:09:05.466Z,99.90
2022-08-22T19:11:45.981Z,99.90
2022-08-22T19:14:38.973Z,99.90
2022-08-22T19:17:37.777Z,99.90
2022-08-22T19:20:23.636Z,99.90
2022-08-22T19:22:51.106Z,99.90
2022-08-22T19:25:26.879Z,99.90
2022-08-22T19:27:56.967Z,99.90
2022-08-22T19:30:46.182Z,99.90
2022-08-22T19:33:39.681Z,99.90
2022-08-22T19:36:12.200Z,99.90
2022-08-22T19:39:09.001Z,99.90
2022-08-22T19:41:59.638Z,99.90
2022-08-22T19:44:26.472Z,99.90
2022-08-22T19:47:34.944Z,99.90
2022-08-22T19:50:16.646Z,99.90
2022-08-22T19:52:46.659Z,99.90
2022-08-22T19:55:16.558Z,99.90
2022-08-22T19:57:52.657Z,99.90
2022-08-22T20:00:28.459Z,99.90
2022-08-22T20:03:10.099Z,99.90
2022-08-22T20:05:56.567Z,99.90
2022-08-22T20:08:42.792Z,99.90
2022-08-22T20:11:37.841Z,99.90
2022-08-22T20:14:25.014Z,99.90
2022-08-22T20:17:02.560Z,99.90
2022-08-22T20:19:37.092Z,99.90
2022-08-22T20:22:04.857Z,99.90
2022-08-22T20:24:40.224Z,99.90
2022-08-22T20:27:23.916Z,99.90
2022-08-22T20:30:04.740Z,99.90
2022-08-22T20:32:33.330Z,99.90
2022-08-22T20:35:00.884Z,99.90
2022-08-22T20:37:50.642Z,99.90
2022-08-22T20:40:54.609Z,99.90
2022-08-22T20:43:32.673Z,99.90
2022-08-22T20:46:24.256Z,99.90
2022-08-22T20:48:53.535Z,99.90
2022-08-22T20:51:25.163Z,99.90
2022-08-22T20:54:10.375Z,99.90
2022-08-22T20:56:55.281Z,99.90
2022-08-22T20:59:40.169Z,99.90
2022-08-22T21:02:21.447Z,99.90
2022-08-22T21:05:00.781Z,99.90
2022-08-22T21:07:33.876Z,99.90
2022-08-22T21:10:25.287Z,99.90
2022-08-22T21:13:02.168Z,99.90
2022-08-22T21:15:33.512Z,99.90
2022-08-22T21:18:00.665Z,99.90
2022-08-22T21:20:32.394Z,99.90
2022-08-22T21:23:12.738Z,99.90
2022-08-22T21:25:54.091Z,99.90
2022-08-22T21:28:56.378Z,99.90
2022-08-22T21:31:25.547Z,99.90
2022-08-22T21:33:53.223Z,99.90
2022-08-22T21:36:22.444Z,99.90
2022-08-22T21:38:55.562Z,99.90
2022-08-22T21:41:42.292Z,99.90
2022-08-22T21:44:28.721Z,99.90
2022-08-22T21:46:56.498Z,99.90
2022-08-22T21:49:29.751Z,99.90
2022-08-22T21:51:56.674Z,99.90
2022-08-22T21:54:35.741Z,99.90
2022-08-22T21:57:08.671Z,99.90
2022-08-22T21:59:51.744Z,99.90
2022-08-22T22:02:39.821Z,99.90
2022-08-22T22:05:16.197Z,99.90
2022-08-22T22:07:45.492Z,99.90
2022-08-22T22:10:15.081Z,99.90
2022-08-22T22:12:43.150Z,99.90
2022-08-22T22:15:12.279Z,99.90
2022-08-22T22:17:39.454Z,99.90
2022-08-22T22:20:06.985Z,99.90
2022-08-22T22:22:33.821Z,99.90
2022-08-22T22:25:04.699Z,99.90
2022-08-22T22:27:31.787Z,99.90
2022-08-22T22:29:58.798Z,99.90
2022-08-22T22:32:25.629Z,99.90
2022-08-22T22:34:52.491Z,99.90
2022-08-22T22:37:19.464Z,99.90
2022-08-22T22:39:46.632Z,99.90
2022-08-22T22:42:13.566Z,99.90
2022-08-22T22:44:40.476Z,99.90
2022-08-22T22:47:13.838Z,99.90
2022-08-22T22:49:40.663Z,99.90
2022-08-22T22:52:07.484Z,99.90
2022-08-22T22:54:38.641Z,99.90
2022-08-22T22:57:12.335Z,99.90
2022-08-22T22:59:40.289Z,99.90
2022-08-22T23:02:16.463Z,99.90
2022-08-22T23:04:45.140Z,99.90
2022-08-22T23:07:13.048Z,99.90
2022-08-22T23:09:44.762Z,99.90
2022-08-22T23:12:13.428Z,99.90
2022-08-22T23:14:40.597Z,99.90
2022-08-22T23:17:07.536Z,99.90
2022-08-22T23:19:34.764Z,99.90
2022-08-22T23:22:01.739Z,99.90
2022-08-22T23:24:31.168Z,99.90
2022-08-22T23:26:58.440Z,99.90
2022-08-22T23:29:25.704Z,99.90
2022-08-22T23:31:55.005Z,99.90
2022-08-22T23:34:25.086Z,99.90
2022-08-22T23:36:53.458Z,99.90
2022-08-22T23:39:21.725Z,99.90
2022-08-22T23:41:48.985Z,99.90
2022-08-22T23:44:17.780Z,99.90
2022-08-22T23:46:44.881Z,99.90
2022-08-22T23:49:12.206Z,99.90
2022-08-22T23:51:39.851Z,99.90
2022-08-22T23:54:07.458Z,99.90
2022-08-22T23:56:40.724Z,99.90
2022-08-22T23:59:10.280Z,99.90
